Time,TemperatureF,DewpointF,PressureIn,WindDirection,WindDirectionDegrees,WindSpeedMPH,WindSpeedGustMPH,Humidity,HourlyPrecipIn,Conditions,Clouds,dailyrainin,SoftwareType,DateUTC
2013-12-15 00:09:00,27.7,25.2,29.86,NW,315,6.3,-999.0,90,-99.99,,,0.00,Acu-Link.com,2013-12-15 05:09:00,
2013-12-15 00:24:00,27.7,25.2,29.87,NW,315,8.9,-999.0,90,-99.99,,,0.00,Acu-Link.com,2013-12-15 05:24:00,
2013-12-15 00:40:00,27.5,25.7,29.88,WNW,292,6.3,-999.0,93,-99.99,,,0.00,Acu-Link.com,2013-12-15 05:40:00,
2013-12-15 00:55:00,27.5,26.0,29.88,NW,315,4.2,-999.0,94,-99.99,,,0.00,Acu-Link.com,2013-12-15 05:55:00,
2013-12-15 01:10:00,27.7,26.2,29.87,WNW,292,5.8,-999.0,94,-99.99,,,0.00,Acu-Link.com,2013-12-15 06:10:00,
2013-12-15 01:25:00,28.0,26.2,29.88,NW,315,7.3,-999.0,93,-99.99,,,0.00,Acu-Link.com,2013-12-15 06:25:00,
2013-12-15 01:40:00,28.0,26.2,29.88,NNW,337,3.7,-999.0,93,-99.99,,,0.00,Acu-Link.com,2013-12-15 06:40:00,
2013-12-15 01:55:00,28.2,25.9,29.88,NNW,337,8.3,-999.0,91,-99.99,,,0.00,Acu-Link.com,2013-12-15 06:55:00,
2013-12-15 02:11:00,28.2,25.7,29.89,WNW,292,7.3,-999.0,90,-99.99,,,0.00,Acu-Link.com,2013-12-15 07:11:00,
2013-12-15 02:26:00,28.2,25.4,29.89,NNW,337,6.3,-999.0,89,-99.99,,,0.00,Acu-Link.com,2013-12-15 07:26:00,
2013-12-15 02:41:00,27.9,25.1,29.90,NNW,337,7.3,-999.0,89,-99.99,,,0.00,Acu-Link.com,2013-12-15 07:41:00,
2013-12-15 02:56:00,27.7,24.9,29.91,NNW,337,6.8,-999.0,89,-99.99,,,0.00,Acu-Link.com,2013-12-15 07:56:00,
2013-12-15 03:11:00,27.5,24.4,29.91,WNW,292,8.9,-999.0,88,-99.99,,,0.00,Acu-Link.com,2013-12-15 08:11:00,
2013-12-15 03:26:00,27.1,23.8,29.91,West,270,7.3,-999.0,87,-99.99,,,0.00,Acu-Link.com,2013-12-15 08:26:00,
2013-12-15 03:41:00,26.8,23.5,29.92,WNW,292,6.8,-999.0,87,-99.99,,,0.00,Acu-Link.com,2013-12-15 08:41:00,
2013-12-15 03:56:00,26.6,23.0,29.92,WNW,292,5.3,-999.0,86,-99.99,,,0.00,Acu-Link.com,2013-12-15 08:56:00,
2013-12-15 04:12:00,26.1,22.5,29.93,NW,315,8.3,-999.0,86,-99.99,,,0.00,Acu-Link.com,2013-12-15 09:12:00,
2013-12-15 04:27:00,25.9,22.3,29.93,NNW,337,8.3,-999.0,86,-99.99,,,0.00,Acu-Link.com,2013-12-15 09:27:00,
2013-12-15 04:42:00,25.7,22.1,29.93,NW,315,5.3,-999.0,86,-99.99,,,0.00,Acu-Link.com,2013-12-15 09:42:00,
2013-12-15 04:57:00,25.5,21.9,29.93,WNW,292,3.7,-999.0,86,-99.99,,,0.00,Acu-Link.com,2013-12-15 09:57:00,
2013-12-15 05:12:00,25.3,21.2,29.94,NW,315,8.9,-999.0,84,-99.99,,,0.00,Acu-Link.com,2013-12-15 10:12:00,
2013-12-15 05:27:00,25.2,21.1,29.94,WNW,292,6.3,-999.0,84,-99.99,,,0.00,Acu-Link.com,2013-12-15 10:27:00,
2013-12-15 05:42:00,25.0,21.4,29.95,NW,315,8.9,-999.0,86,-99.99,,,0.00,Acu-Link.com,2013-12-15 10:42:00,
2013-12-15 05:57:00,24.4,20.6,29.94,West,270,5.8,-999.0,85,-99.99,,,0.00,Acu-Link.com,2013-12-15 10:57:00,
2013-12-15 06:12:00,24.3,20.5,29.95,West,270,6.3,-999.0,85,-99.99,,,0.00,Acu-Link.com,2013-12-15 11:12:00,
2013-12-15 06:27:00,24.1,20.3,29.95,WNW,292,8.3,-999.0,85,-99.99,,,0.00,Acu-Link.com,2013-12-15 11:27:00,
2013-12-15 06:42:00,23.9,20.3,29.96,WNW,292,4.7,-999.0,86,-99.99,,,0.00,Acu-Link.com,2013-12-15 11:42:00,
2013-12-15 06:57:00,23.5,20.2,29.96,West,270,6.8,-999.0,87,-99.99,,,0.00,Acu-Link.com,2013-12-15 11:57:00,
2013-12-15 07:13:00,23.4,20.1,29.96,WSW,247,4.7,-999.0,87,-99.99,,,0.00,Acu-Link.com,2013-12-15 12:13:00,
2013-12-15 07:28:00,23.4,20.1,29.97,West,270,5.8,-999.0,87,-99.99,,,0.00,Acu-Link.com,2013-12-15 12:28:00,
2013-12-15 07:43:00,23.2,19.9,29.97,WSW,247,7.3,-999.0,87,-99.99,,,0.00,Acu-Link.com,2013-12-15 12:43:00,
2013-12-15 07:59:00,23.2,20.2,29.97,WNW,292,5.8,-999.0,88,-99.99,,,0.00,Acu-Link.com,2013-12-15 12:59:00,
2013-12-15 08:14:00,23.2,20.2,29.97,West,270,7.3,-999.0,88,-99.99,,,0.00,Acu-Link.com,2013-12-15 13:14:00,
2013-12-15 08:29:00,23.2,19.6,29.98,WSW,247,5.8,-999.0,86,-99.99,,,0.00,Acu-Link.com,2013-12-15 13:29:00,
2013-12-15 08:44:00,23.2,19.1,29.99,West,270,8.3,-999.0,84,-99.99,,,0.00,Acu-Link.com,2013-12-15 13:44:00,
2013-12-15 09:00:00,23.2,19.4,29.98,NW,315,7.3,-999.0,85,-99.99,,,0.00,Acu-Link.com,2013-12-15 14:00:00,
2013-12-15 09:15:00,23.4,19.8,29.98,West,270,5.3,-999.0,86,-99.99,,,0.00,Acu-Link.com,2013-12-15 14:15:00,
2013-12-15 09:30:00,23.5,18.5,29.99,West,270,4.7,-999.0,81,-99.99,,,0.00,Acu-Link.com,2013-12-15 14:30:00,
2013-12-15 09:45:00,23.7,18.5,29.98,WNW,292,5.8,-999.0,80,-99.99,,,0.00,Acu-Link.com,2013-12-15 14:45:00,
2013-12-15 10:00:00,22.8,16.7,30.00,NW,315,7.3,-999.0,77,-99.99,,,0.00,Acu-Link.com,2013-12-15 15:00:00,
2013-12-15 10:15:00,22.1,15.7,30.00,WNW,292,9.4,-999.0,76,-99.99,,,0.00,Acu-Link.com,2013-12-15 15:15:00,
2013-12-15 10:30:00,22.1,15.7,30.01,WNW,292,6.8,-999.0,76,-99.99,,,0.00,Acu-Link.com,2013-12-15 15:30:00,
2013-12-15 10:45:00,21.6,15.2,30.02,NW,315,6.8,-999.0,76,-99.99,,,0.00,Acu-Link.com,2013-12-15 15:45:00,
2013-12-15 11:00:00,21.6,15.2,30.02,NW,315,6.8,-999.0,76,-99.99,,,0.00,Acu-Link.com,2013-12-15 16:00:00,
2013-12-15 11:16:00,21.7,15.0,30.02,WNW,292,6.8,-999.0,75,-99.99,,,0.00,Acu-Link.com,2013-12-15 16:16:00,
2013-12-15 11:31:00,22.1,15.4,30.01,West,270,5.3,-999.0,75,-99.99,,,0.00,Acu-Link.com,2013-12-15 16:31:00,
2013-12-15 11:46:00,23.0,15.7,29.99,WNW,292,6.8,-999.0,73,-99.99,,,0.00,Acu-Link.com,2013-12-15 16:46:00,
2013-12-15 12:01:00,23.9,16.5,29.99,WNW,292,7.3,-999.0,73,-99.99,,,0.00,Acu-Link.com,2013-12-15 17:01:00,
2013-12-15 12:16:00,24.3,15.9,29.99,WSW,247,6.3,-999.0,70,-99.99,,,0.00,Acu-Link.com,2013-12-15 17:16:00,
2013-12-15 12:31:00,24.6,15.9,29.99,West,270,6.8,-999.0,69,-99.99,,,0.00,Acu-Link.com,2013-12-15 17:31:00,
2013-12-15 12:46:00,24.8,14.7,29.98,West,270,9.4,-999.0,65,-99.99,,,0.00,Acu-Link.com,2013-12-15 17:46:00,
2013-12-15 13:01:00,23.9,14.2,29.99,WNW,292,8.3,-999.0,66,-99.99,,,0.00,Acu-Link.com,2013-12-15 18:01:00,
2013-12-15 13:16:00,23.9,14.6,29.99,West,270,5.8,-999.0,67,-99.99,,,0.00,Acu-Link.com,2013-12-15 18:16:00,
2013-12-15 13:32:00,23.7,14.4,29.98,WNW,292,6.8,-999.0,67,-99.99,,,0.00,Acu-Link.com,2013-12-15 18:32:00,
2013-12-15 13:47:00,23.7,14.4,29.98,WSW,247,4.7,-999.0,67,-99.99,,,0.00,Acu-Link.com,2013-12-15 18:47:00,
2013-12-15 14:02:00,23.4,14.4,29.98,West,270,7.8,-999.0,68,-99.99,,,0.00,Acu-Link.com,2013-12-15 19:02:00,
2013-12-15 14:17:00,23.0,13.7,29.98,SW,225,6.3,-999.0,67,-99.99,,,0.00,Acu-Link.com,2013-12-15 19:17:00,
2013-12-15 14:33:00,23.0,14.0,29.98,WSW,247,5.8,-999.0,68,-99.99,,,0.00,Acu-Link.com,2013-12-15 19:33:00,
2013-12-15 14:48:00,23.5,14.9,29.98,WNW,292,4.7,-999.0,69,-99.99,,,0.00,Acu-Link.com,2013-12-15 19:48:00,
2013-12-15 15:03:00,23.4,14.4,29.98,West,270,8.3,-999.0,68,-99.99,,,0.00,Acu-Link.com,2013-12-15 20:03:00,
2013-12-15 15:18:00,23.5,14.9,29.98,West,270,6.3,-999.0,69,-99.99,,,0.00,Acu-Link.com,2013-12-15 20:18:00,
2013-12-15 15:33:00,23.5,15.2,29.98,WNW,292,3.7,-999.0,70,-99.99,,,0.00,Acu-Link.com,2013-12-15 20:33:00,
2013-12-15 15:48:00,23.7,15.7,29.99,West,270,5.8,-999.0,71,-99.99,,,0.00,Acu-Link.com,2013-12-15 20:48:00,
2013-12-15 16:03:00,23.9,15.9,29.99,West,270,4.2,-999.0,71,-99.99,,,0.00,Acu-Link.com,2013-12-15 21:03:00,
2013-12-15 16:18:00,23.7,15.7,30.01,SW,225,5.8,-999.0,71,-99.99,,,0.00,Acu-Link.com,2013-12-15 21:18:00,
2013-12-15 16:33:00,23.5,15.2,30.01,West,270,7.8,-999.0,70,-99.99,,,0.00,Acu-Link.com,2013-12-15 21:33:00,
2013-12-15 16:48:00,23.4,15.4,30.01,WSW,247,4.7,-999.0,71,-99.99,,,0.00,Acu-Link.com,2013-12-15 21:48:00,
2013-12-15 17:04:00,23.4,15.4,30.00,West,270,5.8,-999.0,71,-99.99,,,0.00,Acu-Link.com,2013-12-15 22:04:00,
2013-12-15 17:19:00,23.2,15.9,30.01,West,270,4.7,-999.0,73,-99.99,,,0.00,Acu-Link.com,2013-12-15 22:19:00,
2013-12-15 17:34:00,23.2,16.2,30.00,West,270,3.7,-999.0,74,-99.99,,,0.00,Acu-Link.com,2013-12-15 22:34:00,
2013-12-15 17:49:00,23.4,16.4,30.02,West,270,3.7,-999.0,74,-99.99,,,0.00,Acu-Link.com,2013-12-15 22:49:00,
2013-12-15 18:04:00,23.2,16.2,30.00,WSW,247,3.7,-999.0,74,-99.99,,,0.00,Acu-Link.com,2013-12-15 23:04:00,
2013-12-15 18:20:00,23.2,16.5,30.01,West,270,3.2,-999.0,75,-99.99,,,0.00,Acu-Link.com,2013-12-15 23:20:00,
2013-12-15 18:35:00,23.2,16.8,30.02,WSW,247,3.7,-999.0,76,-99.99,,,0.00,Acu-Link.com,2013-12-15 23:35:00,
2013-12-15 18:50:00,23.2,17.1,30.03,West,270,3.2,-999.0,77,-99.99,,,0.00,Acu-Link.com,2013-12-15 23:50:00,
2013-12-15 19:05:00,23.2,17.1,30.03,SW,225,4.2,-999.0,77,-99.99,,,0.00,Acu-Link.com,2013-12-16 00:05:00,
2013-12-15 19:21:00,23.4,17.6,30.03,WSW,247,3.2,-999.0,78,-99.99,,,0.00,Acu-Link.com,2013-12-16 00:21:00,
2013-12-15 19:36:00,23.4,17.6,30.03,West,270,3.7,-999.0,78,-99.99,,,0.00,Acu-Link.com,2013-12-16 00:36:00,
2013-12-15 19:51:00,23.5,18.0,30.02,West,270,3.7,-999.0,79,-99.99,,,0.00,Acu-Link.com,2013-12-16 00:51:00,
2013-12-15 20:07:00,23.5,18.0,30.03,SW,225,3.7,-999.0,79,-99.99,,,0.00,Acu-Link.com,2013-12-16 01:07:00,
2013-12-15 20:22:00,23.7,18.2,30.03,WSW,247,2.2,-999.0,79,-99.99,,,0.00,Acu-Link.com,2013-12-16 01:22:00,
2013-12-15 20:37:00,23.9,18.4,30.04,WSW,247,2.7,-999.0,79,-99.99,,,0.00,Acu-Link.com,2013-12-16 01:37:00,
2013-12-15 20:52:00,24.1,18.5,30.03,SW,225,5.8,-999.0,79,-99.99,,,0.00,Acu-Link.com,2013-12-16 01:52:00,
2013-12-15 21:08:00,24.1,18.5,30.03,SW,225,4.2,-999.0,79,-99.99,,,0.00,Acu-Link.com,2013-12-16 02:08:00,
2013-12-15 21:23:00,24.3,18.7,30.04,SW,225,5.8,-999.0,79,-99.99,,,0.00,Acu-Link.com,2013-12-16 02:23:00,
2013-12-15 21:38:00,24.3,18.4,30.04,West,270,6.8,-999.0,78,-99.99,,,0.00,Acu-Link.com,2013-12-16 02:38:00,
2013-12-15 21:53:00,24.4,18.8,30.04,WSW,247,5.3,-999.0,79,-99.99,,,0.00,Acu-Link.com,2013-12-16 02:53:00,
2013-12-15 22:09:00,24.4,18.8,30.04,SW,225,4.2,-999.0,79,-99.99,,,0.00,Acu-Link.com,2013-12-16 03:09:00,
2013-12-15 22:24:00,24.4,19.4,30.04,SSW,202,3.2,-999.0,81,-99.99,,,0.00,Acu-Link.com,2013-12-16 03:24:00,
2013-12-15 22:39:00,24.3,19.9,30.04,WSW,247,2.2,-999.0,83,-99.99,,,0.00,Acu-Link.com,2013-12-16 03:39:00,
2013-12-15 22:54:00,24.1,20.3,30.03,West,270,2.2,-999.0,85,-99.99,,,0.00,Acu-Link.com,2013-12-16 03:54:00,
2013-12-15 23:10:00,23.9,20.3,30.03,WSW,247,2.2,-999.0,86,-99.99,,,0.00,Acu-Link.com,2013-12-16 04:10:00,
2013-12-15 23:25:00,23.9,20.3,30.04,West,270,0.0,-999.0,86,-99.99,,,0.00,Acu-Link.com,2013-12-16 04:25:00,
2013-12-15 23:40:00,23.9,20.3,30.04,NW,315,0.0,-999.0,86,-99.99,,,0.00,Acu-Link.com,2013-12-16 04:40:00,
2013-12-15 23:56:00,23.9,20.6,30.04,WNW,292,0.0,-999.0,87,-99.99,,,0.00,Acu-Link.com,2013-12-16 04:56:00,